sensor_id;sensor_type;location;lat;lon;timestamp;temperature;humidity
5192;DHT22;2615;44.524;11.284;2024-01-27T00:02:24;6.90;60.90
5192;DHT22;2615;44.524;11.284;2024-01-27T00:04:52;6.90;61.00
5192;DHT22;2615;44.524;11.284;2024-01-27T00:07:20;6.90;61.00
5192;DHT22;2615;44.524;11.284;2024-01-27T00:09:49;6.90;61.00
5192;DHT22;2615;44.524;11.284;2024-01-27T00:12:18;6.90;61.00
5192;DHT22;2615;44.524;11.284;2024-01-27T00:14:46;6.90;61.00
5192;DHT22;2615;44.524;11.284;2024-01-27T00:17:14;6.90;61.00
5192;DHT22;2615;44.524;11.284;2024-01-27T00:19:43;6.90;61.10
5192;DHT22;2615;44.524;11.284;2024-01-27T00:22:11;6.90;61.10
5192;DHT22;2615;44.524;11.284;2024-01-27T00:24:39;6.90;61.10
5192;DHT22;2615;44.524;11.284;2024-01-27T00:27:07;6.80;61.00
5192;DHT22;2615;44.524;11.284;2024-01-27T00:29:37;6.80;61.00
5192;DHT22;2615;44.524;11.284;2024-01-27T00:32:06;6.80;61.00
5192;DHT22;2615;44.524;11.284;2024-01-27T00:34:34;6.80;61.00
5192;DHT22;2615;44.524;11.284;2024-01-27T00:37:02;6.80;61.10
5192;DHT22;2615;44.524;11.284;2024-01-27T00:39:31;6.70;61.00
5192;DHT22;2615;44.524;11.284;2024-01-27T00:41:59;6.70;61.00
5192;DHT22;2615;44.524;11.284;2024-01-27T00:44:28;6.70;61.00
5192;DHT22;2615;44.524;11.284;2024-01-27T00:46:57;6.70;61.10
5192;DHT22;2615;44.524;11.284;2024-01-27T00:49:25;6.70;61.20
5192;DHT22;2615;44.524;11.284;2024-01-27T00:51:54;6.60;61.00
5192;DHT22;2615;44.524;11.284;2024-01-27T00:54:22;6.60;61.00
5192;DHT22;2615;44.524;11.284;2024-01-27T00:56:52;6.60;61.10
5192;DHT22;2615;44.524;11.284;2024-01-27T00:59:20;6.60;61.10
5192;DHT22;2615;44.524;11.284;2024-01-27T01:01:48;6.60;61.20
5192;DHT22;2615;44.524;11.284;2024-01-27T01:04:17;6.60;61.20
5192;DHT22;2615;44.524;11.284;2024-01-27T01:06:45;6.60;61.20
5192;DHT22;2615;44.524;11.284;2024-01-27T01:09:14;6.60;61.20
5192;DHT22;2615;44.524;11.284;2024-01-27T01:11:42;6.50;61.00
5192;DHT22;2615;44.524;11.284;2024-01-27T01:14:10;6.50;61.10
5192;DHT22;2615;44.524;11.284;2024-01-27T01:16:39;6.50;61.00
5192;DHT22;2615;44.524;11.284;2024-01-27T01:19:08;6.40;60.90
5192;DHT22;2615;44.524;11.284;2024-01-27T01:21:37;6.40;60.90
5192;DHT22;2615;44.524;11.284;2024-01-27T01:24:05;6.30;60.90
5192;DHT22;2615;44.524;11.284;2024-01-27T01:26:34;6.30;60.90
5192;DHT22;2615;44.524;11.284;2024-01-27T01:29:02;6.20;60.90
5192;DHT22;2615;44.524;11.284;2024-01-27T01:31:30;6.10;60.80
5192;DHT22;2615;44.524;11.284;2024-01-27T01:33:58;6.10;60.80
5192;DHT22;2615;44.524;11.284;2024-01-27T01:36:27;6.00;61.60
5192;DHT22;2615;44.524;11.284;2024-01-27T01:38:56;6.00;60.80
5192;DHT22;2615;44.524;11.284;2024-01-27T01:41:25;5.90;60.80
5192;DHT22;2615;44.524;11.284;2024-01-27T01:43:53;5.90;60.80
5192;DHT22;2615;44.524;11.284;2024-01-27T01:46:22;5.90;60.80
5192;DHT22;2615;44.524;11.284;2024-01-27T01:48:51;5.80;60.80
5192;DHT22;2615;44.524;11.284;2024-01-27T01:51:20;5.70;60.70
5192;DHT22;2615;44.524;11.284;2024-01-27T01:53:49;5.70;60.80
5192;DHT22;2615;44.524;11.284;2024-01-27T01:56:20;5.70;60.80
5192;DHT22;2615;44.524;11.284;2024-01-27T01:58:48;5.60;60.60
5192;DHT22;2615;44.524;11.284;2024-01-27T02:01:17;5.50;60.60
5192;DHT22;2615;44.524;11.284;2024-01-27T02:03:52;5.50;60.70
5192;DHT22;2615;44.524;11.284;2024-01-27T02:06:21;5.40;60.70
5192;DHT22;2615;44.524;11.284;2024-01-27T02:08:49;5.40;60.70
5192;DHT22;2615;44.524;11.284;2024-01-27T02:11:19;5.30;60.70
5192;DHT22;2615;44.524;11.284;2024-01-27T02:13:48;5.30;60.70
5192;DHT22;2615;44.524;11.284;2024-01-27T02:16:16;5.30;60.70
5192;DHT22;2615;44.524;11.284;2024-01-27T02:18:45;5.20;60.50
5192;DHT22;2615;44.524;11.284;2024-01-27T02:21:13;5.20;60.50
5192;DHT22;2615;44.524;11.284;2024-01-27T02:23:43;5.10;60.40
5192;DHT22;2615;44.524;11.284;2024-01-27T02:26:13;5.00;60.30
5192;DHT22;2615;44.524;11.284;2024-01-27T02:28:41;5.00;60.30
5192;DHT22;2615;44.524;11.284;2024-01-27T02:31:09;4.90;60.20
5192;DHT22;2615;44.524;11.284;2024-01-27T02:33:37;4.80;60.20
5192;DHT22;2615;44.524;11.284;2024-01-27T02:36:06;4.70;60.10
5192;DHT22;2615;44.524;11.284;2024-01-27T02:38:34;4.70;60.20
5192;DHT22;2615;44.524;11.284;2024-01-27T02:41:02;4.60;60.20
5192;DHT22;2615;44.524;11.284;2024-01-27T02:43:32;4.60;60.20
5192;DHT22;2615;44.524;11.284;2024-01-27T02:46:00;4.50;60.10
5192;DHT22;2615;44.524;11.284;2024-01-27T02:48:28;4.50;60.10
5192;DHT22;2615;44.524;11.284;2024-01-27T02:50:56;4.40;60.00
5192;DHT22;2615;44.524;11.284;2024-01-27T02:53:24;4.40;60.00
5192;DHT22;2615;44.524;11.284;2024-01-27T02:55:52;4.30;59.90
5192;DHT22;2615;44.524;11.284;2024-01-27T02:58:20;4.20;59.80
5192;DHT22;2615;44.524;11.284;2024-01-27T03:00:50;4.20;59.80
5192;DHT22;2615;44.524;11.284;2024-01-27T03:03:18;4.10;59.80
5192;DHT22;2615;44.524;11.284;2024-01-27T03:05:47;4.10;59.80
5192;DHT22;2615;44.524;11.284;2024-01-27T03:08:15;4.10;59.80
5192;DHT22;2615;44.524;11.284;2024-01-27T03:10:43;4.00;59.60
5192;DHT22;2615;44.524;11.284;2024-01-27T03:13:11;3.90;59.60
5192;DHT22;2615;44.524;11.284;2024-01-27T03:15:40;3.80;59.50
5192;DHT22;2615;44.524;11.284;2024-01-27T03:18:10;3.80;59.50
5192;DHT22;2615;44.524;11.284;2024-01-27T03:20:39;3.80;59.50
5192;DHT22;2615;44.524;11.284;2024-01-27T03:23:07;3.70;59.50
5192;DHT22;2615;44.524;11.284;2024-01-27T03:25:35;3.60;59.40
5192;DHT22;2615;44.524;11.284;2024-01-27T03:28:04;3.60;59.40
5192;DHT22;2615;44.524;11.284;2024-01-27T03:30:33;3.50;59.30
5192;DHT22;2615;44.524;11.284;2024-01-27T03:33:01;3.50;59.30
5192;DHT22;2615;44.524;11.284;2024-01-27T03:35:31;3.50;59.30
5192;DHT22;2615;44.524;11.284;2024-01-27T03:37:59;3.40;59.20
5192;DHT22;2615;44.524;11.284;2024-01-27T03:40:30;3.40;59.20
5192;DHT22;2615;44.524;11.284;2024-01-27T03:42:59;3.40;59.30
5192;DHT22;2615;44.524;11.284;2024-01-27T03:45:27;3.30;59.10
5192;DHT22;2615;44.524;11.284;2024-01-27T03:47:55;3.30;59.10
5192;DHT22;2615;44.524;11.284;2024-01-27T03:50:23;3.20;59.10
5192;DHT22;2615;44.524;11.284;2024-01-27T03:52:53;3.30;59.10
5192;DHT22;2615;44.524;11.284;2024-01-27T03:55:21;3.20;59.10
5192;DHT22;2615;44.524;11.284;2024-01-27T03:57:49;3.10;59.00
5192;DHT22;2615;44.524;11.284;2024-01-27T04:00:18;3.10;59.00
5192;DHT22;2615;44.524;11.284;2024-01-27T04:02:46;3.10;59.00
5192;DHT22;2615;44.524;11.284;2024-01-27T04:05:14;3.10;59.00
5192;DHT22;2615;44.524;11.284;2024-01-27T04:07:43;3.00;58.90
5192;DHT22;2615;44.524;11.284;2024-01-27T04:10:13;3.00;58.90
5192;DHT22;2615;44.524;11.284;2024-01-27T04:12:42;3.00;58.90
5192;DHT22;2615;44.524;11.284;2024-01-27T04:15:11;2.90;58.80
5192;DHT22;2615;44.524;11.284;2024-01-27T04:17:39;2.90;58.80
5192;DHT22;2615;44.524;11.284;2024-01-27T04:20:09;2.90;59.40
5192;DHT22;2615;44.524;11.284;2024-01-27T04:22:38;2.90;58.80
5192;DHT22;2615;44.524;11.284;2024-01-27T04:25:07;2.90;58.80
5192;DHT22;2615;44.524;11.284;2024-01-27T04:27:38;2.90;58.80
5192;DHT22;2615;44.524;11.284;2024-01-27T04:30:07;2.90;58.80
5192;DHT22;2615;44.524;11.284;2024-01-27T04:32:36;2.80;58.70
5192;DHT22;2615;44.524;11.284;2024-01-27T04:35:08;2.80;58.70
5192;DHT22;2615;44.524;11.284;2024-01-27T04:37:36;2.70;58.70
5192;DHT22;2615;44.524;11.284;2024-01-27T04:40:05;2.70;58.70
5192;DHT22;2615;44.524;11.284;2024-01-27T04:42:34;2.70;58.70
5192;DHT22;2615;44.524;11.284;2024-01-27T04:45:04;2.70;58.70
5192;DHT22;2615;44.524;11.284;2024-01-27T04:47:33;2.70;58.70
5192;DHT22;2615;44.524;11.284;2024-01-27T04:50:01;2.70;58.70
5192;DHT22;2615;44.524;11.284;2024-01-27T04:52:30;2.70;58.60
5192;DHT22;2615;44.524;11.284;2024-01-27T04:54:58;2.70;58.60
5192;DHT22;2615;44.524;11.284;2024-01-27T04:57:26;2.70;58.60
5192;DHT22;2615;44.524;11.284;2024-01-27T04:59:55;2.60;58.50
5192;DHT22;2615;44.524;11.284;2024-01-27T05:02:24;2.60;58.50
5192;DHT22;2615;44.524;11.284;2024-01-27T05:04:52;2.60;58.50
5192;DHT22;2615;44.524;11.284;2024-01-27T05:07:21;2.60;58.50
5192;DHT22;2615;44.524;11.284;2024-01-27T05:09:49;2.60;58.50
5192;DHT22;2615;44.524;11.284;2024-01-27T05:12:17;2.50;58.50
5192;DHT22;2615;44.524;11.284;2024-01-27T05:14:45;2.50;58.50
5192;DHT22;2615;44.524;11.284;2024-01-27T05:17:13;2.50;58.50
5192;DHT22;2615;44.524;11.284;2024-01-27T05:19:44;2.60;58.50
5192;DHT22;2615;44.524;11.284;2024-01-27T05:22:12;2.50;58.50
5192;DHT22;2615;44.524;11.284;2024-01-27T05:24:40;2.50;58.50
5192;DHT22;2615;44.524;11.284;2024-01-27T05:27:08;2.50;58.60
5192;DHT22;2615;44.524;11.284;2024-01-27T05:29:37;2.50;58.70
5192;DHT22;2615;44.524;11.284;2024-01-27T05:32:05;2.50;58.70
5192;DHT22;2615;44.524;11.284;2024-01-27T05:34:33;2.60;58.80
5192;DHT22;2615;44.524;11.284;2024-01-27T05:37:03;2.60;58.80
5192;DHT22;2615;44.524;11.284;2024-01-27T05:39:32;2.60;58.70
5192;DHT22;2615;44.524;11.284;2024-01-27T05:42:00;2.60;58.70
5192;DHT22;2615;44.524;11.284;2024-01-27T05:44:29;2.60;58.70
5192;DHT22;2615;44.524;11.284;2024-01-27T05:46:57;2.70;58.80
5192;DHT22;2615;44.524;11.284;2024-01-27T05:49:26;2.60;58.80
5192;DHT22;2615;44.524;11.284;2024-01-27T05:51:54;2.70;58.80
5192;DHT22;2615;44.524;11.284;2024-01-27T05:54:24;2.70;58.80
5192;DHT22;2615;44.524;11.284;2024-01-27T05:56:52;2.70;58.80
5192;DHT22;2615;44.524;11.284;2024-01-27T05:59:20;2.80;58.90
5192;DHT22;2615;44.524;11.284;2024-01-27T06:01:48;2.80;58.90
5192;DHT22;2615;44.524;11.284;2024-01-27T06:04:16;2.80;58.80
5192;DHT22;2615;44.524;11.284;2024-01-27T06:06:44;2.80;58.80
5192;DHT22;2615;44.524;11.284;2024-01-27T06:09:13;2.90;58.90
5192;DHT22;2615;44.524;11.284;2024-01-27T06:11:42;2.90;59.00
5192;DHT22;2615;44.524;11.284;2024-01-27T06:14:10;2.90;58.90
5192;DHT22;2615;44.524;11.284;2024-01-27T06:16:39;2.90;58.90
5192;DHT22;2615;44.524;11.284;2024-01-27T06:19:07;2.90;58.90
5192;DHT22;2615;44.524;11.284;2024-01-27T06:21:36;2.90;58.90
5192;DHT22;2615;44.524;11.284;2024-01-27T06:24:05;2.90;59.00
5192;DHT22;2615;44.524;11.284;2024-01-27T06:26:33;2.90;59.10
5192;DHT22;2615;44.524;11.284;2024-01-27T06:29:03;2.90;59.10
5192;DHT22;2615;44.524;11.284;2024-01-27T06:31:31;2.90;59.20
5192;DHT22;2615;44.524;11.284;2024-01-27T06:33:59;3.00;59.20
5192;DHT22;2615;44.524;11.284;2024-01-27T06:36:27;3.00;59.20
5192;DHT22;2615;44.524;11.284;2024-01-27T06:38:55;3.00;59.30
5192;DHT22;2615;44.524;11.284;2024-01-27T06:41:24;3.10;59.50
5192;DHT22;2615;44.524;11.284;2024-01-27T06:43:52;3.10;59.40
5192;DHT22;2615;44.524;11.284;2024-01-27T06:46:22;3.20;59.50
5192;DHT22;2615;44.524;11.284;2024-01-27T06:48:50;3.20;59.50
5192;DHT22;2615;44.524;11.284;2024-01-27T06:51:18;3.30;59.60
5192;DHT22;2615;44.524;11.284;2024-01-27T06:53:46;3.40;59.70
5192;DHT22;2615;44.524;11.284;2024-01-27T06:56:16;3.50;59.70
5192;DHT22;2615;44.524;11.284;2024-01-27T06:58:44;3.60;59.80
5192;DHT22;2615;44.524;11.284;2024-01-27T07:01:12;3.70;59.90
5192;DHT22;2615;44.524;11.284;2024-01-27T07:03:41;3.90;60.00
5192;DHT22;2615;44.524;11.284;2024-01-27T07:06:11;3.90;60.00
5192;DHT22;2615;44.524;11.284;2024-01-27T07:08:40;4.00;60.00
5192;DHT22;2615;44.524;11.284;2024-01-27T07:11:08;4.10;60.10
5192;DHT22;2615;44.524;11.284;2024-01-27T07:13:36;4.20;60.20
5192;DHT22;2615;44.524;11.284;2024-01-27T07:16:05;4.20;60.20
5192;DHT22;2615;44.524;11.284;2024-01-27T07:18:33;4.30;60.20
5192;DHT22;2615;44.524;11.284;2024-01-27T07:21:04;4.30;60.30
5192;DHT22;2615;44.524;11.284;2024-01-27T07:23:35;4.40;60.30
5192;DHT22;2615;44.524;11.284;2024-01-27T07:26:03;4.50;61.20
5192;DHT22;2615;44.524;11.284;2024-01-27T07:28:31;4.50;60.40
5192;DHT22;2615;44.524;11.284;2024-01-27T07:31:00;4.60;60.50
5192;DHT22;2615;44.524;11.284;2024-01-27T07:33:28;4.70;60.70
5192;DHT22;2615;44.524;11.284;2024-01-27T07:35:56;4.70;60.70
5192;DHT22;2615;44.524;11.284;2024-01-27T07:38:26;4.80;60.80
5192;DHT22;2615;44.524;11.284;2024-01-27T07:40:54;4.90;60.80
5192;DHT22;2615;44.524;11.284;2024-01-27T07:43:25;5.00;61.70
5192;DHT22;2615;44.524;11.284;2024-01-27T07:45:53;5.00;60.90
5192;DHT22;2615;44.524;11.284;2024-01-27T07:48:21;5.10;61.00
5192;DHT22;2615;44.524;11.284;2024-01-27T07:50:50;5.20;61.10
5192;DHT22;2615;44.524;11.284;2024-01-27T07:53:18;5.30;61.20
5192;DHT22;2615;44.524;11.284;2024-01-27T07:55:47;5.40;61.20
5192;DHT22;2615;44.524;11.284;2024-01-27T07:58:17;5.50;61.30
5192;DHT22;2615;44.524;11.284;2024-01-27T08:00:46;5.60;61.30
5192;DHT22;2615;44.524;11.284;2024-01-27T08:03:15;5.70;61.40
5192;DHT22;2615;44.524;11.284;2024-01-27T08:05:43;5.80;61.40
5192;DHT22;2615;44.524;11.284;2024-01-27T08:08:11;6.00;61.60
5192;DHT22;2615;44.524;11.284;2024-01-27T08:10:39;6.10;61.60
5192;DHT22;2615;44.524;11.284;2024-01-27T08:13:09;6.20;61.60
5192;DHT22;2615;44.524;11.284;2024-01-27T08:15:37;6.40;61.70
5192;DHT22;2615;44.524;11.284;2024-01-27T08:18:06;6.50;61.70
5192;DHT22;2615;44.524;11.284;2024-01-27T08:20:34;6.70;61.80
5192;DHT22;2615;44.524;11.284;2024-01-27T08:23:02;6.80;61.70
5192;DHT22;2615;44.524;11.284;2024-01-27T08:25:33;7.00;61.80
5192;DHT22;2615;44.524;11.284;2024-01-27T08:28:01;7.10;61.70
5192;DHT22;2615;44.524;11.284;2024-01-27T08:30:31;7.20;61.70
5192;DHT22;2615;44.524;11.284;2024-01-27T08:32:59;7.30;61.60
5192;DHT22;2615;44.524;11.284;2024-01-27T08:35:27;7.50;61.70
5192;DHT22;2615;44.524;11.284;2024-01-27T08:37:56;7.60;61.70
5192;DHT22;2615;44.524;11.284;2024-01-27T08:40:24;7.80;61.80
5192;DHT22;2615;44.524;11.284;2024-01-27T08:42:52;7.90;61.70
5192;DHT22;2615;44.524;11.284;2024-01-27T08:45:20;8.00;61.60
5192;DHT22;2615;44.524;11.284;2024-01-27T08:47:50;8.10;61.50
5192;DHT22;2615;44.524;11.284;2024-01-27T08:50:18;8.20;61.50
5192;DHT22;2615;44.524;11.284;2024-01-27T08:52:47;8.30;61.50
5192;DHT22;2615;44.524;11.284;2024-01-27T08:55:15;8.40;61.40
5192;DHT22;2615;44.524;11.284;2024-01-27T08:57:46;8.60;61.40
5192;DHT22;2615;44.524;11.284;2024-01-27T09:00:15;8.60;61.30
5192;DHT22;2615;44.524;11.284;2024-01-27T09:02:43;8.70;61.30
5192;DHT22;2615;44.524;11.284;2024-01-27T09:05:13;8.80;61.30
5192;DHT22;2615;44.524;11.284;2024-01-27T09:07:42;8.80;61.20
5192;DHT22;2615;44.524;11.284;2024-01-27T09:10:10;8.90;61.20
5192;DHT22;2615;44.524;11.284;2024-01-27T09:12:42;9.00;61.20
5192;DHT22;2615;44.524;11.284;2024-01-27T09:15:10;9.10;61.30
5192;DHT22;2615;44.524;11.284;2024-01-27T09:17:39;9.20;61.20
5192;DHT22;2615;44.524;11.284;2024-01-27T09:20:10;9.20;61.10
5192;DHT22;2615;44.524;11.284;2024-01-27T09:22:40;9.30;61.10
5192;DHT22;2615;44.524;11.284;2024-01-27T09:25:08;9.40;61.10
5192;DHT22;2615;44.524;11.284;2024-01-27T09:27:37;9.40;61.00
5192;DHT22;2615;44.524;11.284;2024-01-27T09:30:06;9.50;61.00
5192;DHT22;2615;44.524;11.284;2024-01-27T09:32:35;9.50;60.90
5192;DHT22;2615;44.524;11.284;2024-01-27T09:35:03;9.60;61.00
5192;DHT22;2615;44.524;11.284;2024-01-27T09:37:32;9.70;61.00
5192;DHT22;2615;44.524;11.284;2024-01-27T09:40:01;9.80;61.00
5192;DHT22;2615;44.524;11.284;2024-01-27T09:42:33;9.90;61.00
5192;DHT22;2615;44.524;11.284;2024-01-27T09:45:03;10.00;59.90
5192;DHT22;2615;44.524;11.284;2024-01-27T09:47:32;10.10;59.80
5192;DHT22;2615;44.524;11.284;2024-01-27T09:50:01;10.10;59.70
5192;DHT22;2615;44.524;11.284;2024-01-27T09:52:30;10.20;59.70
5192;DHT22;2615;44.524;11.284;2024-01-27T09:54:58;10.20;59.70
5192;DHT22;2615;44.524;11.284;2024-01-27T09:57:28;10.30;59.80
5192;DHT22;2615;44.524;11.284;2024-01-27T09:59:57;10.40;59.80
5192;DHT22;2615;44.524;11.284;2024-01-27T10:02:25;10.40;59.70
5192;DHT22;2615;44.524;11.284;2024-01-27T10:04:58;10.60;59.80
5192;DHT22;2615;44.524;11.284;2024-01-27T10:07:28;10.70;59.80
5192;DHT22;2615;44.524;11.284;2024-01-27T10:09:57;10.80;59.90
5192;DHT22;2615;44.524;11.284;2024-01-27T10:14:55;11.30;59.50
5192;DHT22;2615;44.524;11.284;2024-01-27T10:17:24;11.40;59.70
5192;DHT22;2615;44.524;11.284;2024-01-27T10:19:59;11.50;59.50
5192;DHT22;2615;44.524;11.284;2024-01-27T10:22:37;11.60;59.60
5192;DHT22;2615;44.524;11.284;2024-01-27T10:25:06;11.90;59.80
5192;DHT22;2615;44.524;11.284;2024-01-27T10:27:35;12.20;59.90
5192;DHT22;2615;44.524;11.284;2024-01-27T10:30:06;12.60;60.00
5192;DHT22;2615;44.524;11.284;2024-01-27T10:32:42;12.90;59.80
5192;DHT22;2615;44.524;11.284;2024-01-27T10:35:10;13.20;59.50
5192;DHT22;2615;44.524;11.284;2024-01-27T10:37:38;13.40;59.40
5192;DHT22;2615;44.524;11.284;2024-01-27T10:40:08;13.70;59.30
5192;DHT22;2615;44.524;11.284;2024-01-27T10:42:37;14.20;59.30
5192;DHT22;2615;44.524;11.284;2024-01-27T10:45:08;14.60;59.10
5192;DHT22;2615;44.524;11.284;2024-01-27T10:47:37;14.90;58.80
5192;DHT22;2615;44.524;11.284;2024-01-27T10:50:08;15.00;58.30
5192;DHT22;2615;44.524;11.284;2024-01-27T10:52:38;15.20;58.10
5192;DHT22;2615;44.524;11.284;2024-01-27T10:55:10;15.30;57.90
5192;DHT22;2615;44.524;11.284;2024-01-27T10:57:39;15.50;57.90
5192;DHT22;2615;44.524;11.284;2024-01-27T11:00:11;15.70;57.80
5192;DHT22;2615;44.524;11.284;2024-01-27T11:02:41;15.80;57.40
5192;DHT22;2615;44.524;11.284;2024-01-27T11:05:11;15.80;57.10
5192;DHT22;2615;44.524;11.284;2024-01-27T11:07:42;15.90;57.10
5192;DHT22;2615;44.524;11.284;2024-01-27T11:10:10;16.00;57.30
5192;DHT22;2615;44.524;11.284;2024-01-27T11:12:39;16.10;57.10
5192;DHT22;2615;44.524;11.284;2024-01-27T11:15:09;16.20;56.80
5192;DHT22;2615;44.524;11.284;2024-01-27T11:17:39;16.10;56.60
5192;DHT22;2615;44.524;11.284;2024-01-27T11:20:09;16.30;56.80
5192;DHT22;2615;44.524;11.284;2024-01-27T11:22:38;16.50;56.70
5192;DHT22;2615;44.524;11.284;2024-01-27T11:25:15;16.60;56.40
5192;DHT22;2615;44.524;11.284;2024-01-27T11:27:45;16.50;56.00
5192;DHT22;2615;44.524;11.284;2024-01-27T11:30:28;16.40;56.00
5192;DHT22;2615;44.524;11.284;2024-01-27T11:32:57;16.40;56.00
5192;DHT22;2615;44.524;11.284;2024-01-27T11:35:28;16.50;56.10
5192;DHT22;2615;44.524;11.284;2024-01-27T11:37:57;16.60;56.10
5192;DHT22;2615;44.524;11.284;2024-01-27T11:40:25;16.60;55.70
5192;DHT22;2615;44.524;11.284;2024-01-27T11:42:56;16.60;55.60
5192;DHT22;2615;44.524;11.284;2024-01-27T11:45:24;16.50;55.40
5192;DHT22;2615;44.524;11.284;2024-01-27T11:47:55;16.40;55.40
5192;DHT22;2615;44.524;11.284;2024-01-27T11:50:24;16.40;55.40
5192;DHT22;2615;44.524;11.284;2024-01-27T11:52:52;16.30;55.30
5192;DHT22;2615;44.524;11.284;2024-01-27T11:55:20;16.30;55.20
5192;DHT22;2615;44.524;11.284;2024-01-27T11:57:48;16.30;55.20
5192;DHT22;2615;44.524;11.284;2024-01-27T12:00:17;16.40;55.20
5192;DHT22;2615;44.524;11.284;2024-01-27T12:02:50;16.60;55.30
5192;DHT22;2615;44.524;11.284;2024-01-27T12:05:20;16.70;55.20
5192;DHT22;2615;44.524;11.284;2024-01-27T12:07:48;17.10;55.40
5192;DHT22;2615;44.524;11.284;2024-01-27T12:10:16;17.50;55.50
5192;DHT22;2615;44.524;11.284;2024-01-27T12:12:45;17.90;55.40
5192;DHT22;2615;44.524;11.284;2024-01-27T12:15:13;18.30;55.20
5192;DHT22;2615;44.524;11.284;2024-01-27T12:17:42;18.80;55.20
5192;DHT22;2615;44.524;11.284;2024-01-27T12:20:14;19.50;55.20
5192;DHT22;2615;44.524;11.284;2024-01-27T12:22:45;20.40;55.10
5192;DHT22;2615;44.524;11.284;2024-01-27T12:25:14;21.30;54.80
5192;DHT22;2615;44.524;11.284;2024-01-27T12:27:42;22.20;54.20
5192;DHT22;2615;44.524;11.284;2024-01-27T12:30:11;23.00;53.50
5192;DHT22;2615;44.524;11.284;2024-01-27T12:32:40;23.70;52.70
5192;DHT22;2615;44.524;11.284;2024-01-27T12:35:09;24.40;52.10
5192;DHT22;2615;44.524;11.284;2024-01-27T12:37:37;24.90;51.30
5192;DHT22;2615;44.524;11.284;2024-01-27T12:40:18;25.50;50.70
5192;DHT22;2615;44.524;11.284;2024-01-27T12:42:50;26.00;49.30
5192;DHT22;2615;44.524;11.284;2024-01-27T12:45:19;26.40;49.20
5192;DHT22;2615;44.524;11.284;2024-01-27T12:47:47;26.80;48.40
5192;DHT22;2615;44.524;11.284;2024-01-27T12:50:15;27.00;47.70
5192;DHT22;2615;44.524;11.284;2024-01-27T12:52:44;27.20;47.10
5192;DHT22;2615;44.524;11.284;2024-01-27T12:55:12;27.10;46.40
5192;DHT22;2615;44.524;11.284;2024-01-27T12:57:44;27.00;45.90
5192;DHT22;2615;44.524;11.284;2024-01-27T13:00:13;26.80;45.50
5192;DHT22;2615;44.524;11.284;2024-01-27T13:02:42;26.70;45.40
5192;DHT22;2615;44.524;11.284;2024-01-27T13:05:10;26.60;45.30
5192;DHT22;2615;44.524;11.284;2024-01-27T13:07:40;26.80;45.30
5192;DHT22;2615;44.524;11.284;2024-01-27T13:10:09;27.10;45.00
5192;DHT22;2615;44.524;11.284;2024-01-27T13:12:37;27.50;44.50
5192;DHT22;2615;44.524;11.284;2024-01-27T13:15:07;27.80;44.00
5192;DHT22;2615;44.524;11.284;2024-01-27T13:17:35;28.00;43.40
5192;DHT22;2615;44.524;11.284;2024-01-27T13:20:05;28.20;43.10
5192;DHT22;2615;44.524;11.284;2024-01-27T13:22:33;28.30;42.80
5192;DHT22;2615;44.524;11.284;2024-01-27T13:25:01;28.20;42.10
5192;DHT22;2615;44.524;11.284;2024-01-27T13:27:35;28.20;41.80
5192;DHT22;2615;44.524;11.284;2024-01-27T13:30:03;28.00;41.60
5192;DHT22;2615;44.524;11.284;2024-01-27T13:32:33;27.80;41.30
5192;DHT22;2615;44.524;11.284;2024-01-27T13:35:02;27.40;41.10
5192;DHT22;2615;44.524;11.284;2024-01-27T13:37:30;26.90;41.10
5192;DHT22;2615;44.524;11.284;2024-01-27T13:40:00;26.30;41.10
5192;DHT22;2615;44.524;11.284;2024-01-27T13:42:30;25.70;41.30
5192;DHT22;2615;44.524;11.284;2024-01-27T13:44:58;24.90;42.10
5192;DHT22;2615;44.524;11.284;2024-01-27T13:47:27;24.10;41.60
5192;DHT22;2615;44.524;11.284;2024-01-27T13:49:57;23.50;41.90
5192;DHT22;2615;44.524;11.284;2024-01-27T13:52:26;23.00;42.30
5192;DHT22;2615;44.524;11.284;2024-01-27T13:54:55;22.50;42.40
5192;DHT22;2615;44.524;11.284;2024-01-27T13:57:24;22.20;42.50
5192;DHT22;2615;44.524;11.284;2024-01-27T13:59:52;22.10;42.80
5192;DHT22;2615;44.524;11.284;2024-01-27T14:02:21;21.90;42.80
5192;DHT22;2615;44.524;11.284;2024-01-27T14:04:50;21.70;42.90
5192;DHT22;2615;44.524;11.284;2024-01-27T14:07:20;21.30;42.90
5192;DHT22;2615;44.524;11.284;2024-01-27T14:09:49;21.00;43.00
5192;DHT22;2615;44.524;11.284;2024-01-27T14:12:17;20.70;43.30
5192;DHT22;2615;44.524;11.284;2024-01-27T14:14:46;20.40;43.40
5192;DHT22;2615;44.524;11.284;2024-01-27T14:17:14;20.20;43.70
5192;DHT22;2615;44.524;11.284;2024-01-27T14:19:42;20.00;43.80
5192;DHT22;2615;44.524;11.284;2024-01-27T14:22:12;19.80;44.00
5192;DHT22;2615;44.524;11.284;2024-01-27T14:24:41;19.60;44.00
5192;DHT22;2615;44.524;11.284;2024-01-27T14:27:11;19.40;44.70
5192;DHT22;2615;44.524;11.284;2024-01-27T14:29:40;19.20;44.20
5192;DHT22;2615;44.524;11.284;2024-01-27T14:32:09;19.10;44.20
5192;DHT22;2615;44.524;11.284;2024-01-27T14:34:37;18.90;44.30
5192;DHT22;2615;44.524;11.284;2024-01-27T14:37:05;18.90;44.60
5192;DHT22;2615;44.524;11.284;2024-01-27T14:39:36;19.00;44.90
5192;DHT22;2615;44.524;11.284;2024-01-27T14:42:07;19.20;45.00
5192;DHT22;2615;44.524;11.284;2024-01-27T14:44:35;19.30;44.90
5192;DHT22;2615;44.524;11.284;2024-01-27T14:47:05;19.30;45.00
5192;DHT22;2615;44.524;11.284;2024-01-27T14:49:33;19.30;45.00
5192;DHT22;2615;44.524;11.284;2024-01-27T14:52:04;19.30;44.90
5192;DHT22;2615;44.524;11.284;2024-01-27T14:54:33;19.20;44.80
5192;DHT22;2615;44.524;11.284;2024-01-27T14:57:02;19.10;44.80
5192;DHT22;2615;44.524;11.284;2024-01-27T14:59:32;18.90;44.80
5192;DHT22;2615;44.524;11.284;2024-01-27T15:02:00;18.70;44.90
5192;DHT22;2615;44.524;11.284;2024-01-27T15:04:29;18.40;44.70
5192;DHT22;2615;44.524;11.284;2024-01-27T15:06:57;18.00;44.70
5192;DHT22;2615;44.524;11.284;2024-01-27T15:09:25;17.40;44.80
5192;DHT22;2615;44.524;11.284;2024-01-27T15:11:53;17.00;45.20
5192;DHT22;2615;44.524;11.284;2024-01-27T15:14:22;16.70;45.60
5192;DHT22;2615;44.524;11.284;2024-01-27T15:16:51;16.50;45.80
5192;DHT22;2615;44.524;11.284;2024-01-27T15:19:19;16.30;45.90
5192;DHT22;2615;44.524;11.284;2024-01-27T15:21:48;16.10;45.90
5192;DHT22;2615;44.524;11.284;2024-01-27T15:24:16;15.70;45.80
5192;DHT22;2615;44.524;11.284;2024-01-27T15:26:44;15.30;46.00
5192;DHT22;2615;44.524;11.284;2024-01-27T15:29:12;15.00;46.30
5192;DHT22;2615;44.524;11.284;2024-01-27T15:31:40;14.60;46.60
5192;DHT22;2615;44.524;11.284;2024-01-27T15:34:10;14.30;46.80
5192;DHT22;2615;44.524;11.284;2024-01-27T15:36:39;14.00;47.00
5192;DHT22;2615;44.524;11.284;2024-01-27T15:39:08;13.70;47.10
5192;DHT22;2615;44.524;11.284;2024-01-27T15:41:36;13.40;47.30
5192;DHT22;2615;44.524;11.284;2024-01-27T15:44:07;13.20;47.60
5192;DHT22;2615;44.524;11.284;2024-01-27T15:46:35;12.90;47.40
5192;DHT22;2615;44.524;11.284;2024-01-27T15:49:03;12.70;47.60
5192;DHT22;2615;44.524;11.284;2024-01-27T15:51:33;12.50;47.80
5192;DHT22;2615;44.524;11.284;2024-01-27T15:54:01;12.30;47.80
5192;DHT22;2615;44.524;11.284;2024-01-27T15:56:29;12.20;48.10
5192;DHT22;2615;44.524;11.284;2024-01-27T15:58:57;12.00;48.20
5192;DHT22;2615;44.524;11.284;2024-01-27T16:01:29;11.80;48.30
5192;DHT22;2615;44.524;11.284;2024-01-27T16:03:58;11.60;48.40
5192;DHT22;2615;44.524;11.284;2024-01-27T16:06:26;11.40;48.60
5192;DHT22;2615;44.524;11.284;2024-01-27T16:08:56;11.20;48.70